createdAt,value
2019-02-16T00:00:19.957Z,6.00
2019-02-16T00:00:58.543Z,6.05
2019-02-16T00:01:32.891Z,6.04
2019-02-16T00:02:07.251Z,5.99
2019-02-16T00:02:41.841Z,5.99
2019-02-16T00:03:16.525Z,6.00
2019-02-16T00:03:50.902Z,5.88
2019-02-16T00:04:25.244Z,5.88
2019-02-16T00:04:59.589Z,5.85
2019-02-16T00:05:33.916Z,5.88
2019-02-16T00:06:08.255Z,5.83
2019-02-16T00:06:42.620Z,5.78
2019-02-16T00:07:17.049Z,5.86
2019-02-16T00:07:51.702Z,5.83
2019-02-16T00:08:26.352Z,5.83
2019-02-16T00:09:00.716Z,5.84
2019-02-16T00:09:35.077Z,5.85
2019-02-16T00:10:09.701Z,5.97
2019-02-16T00:10:44.308Z,5.97
2019-02-16T00:11:18.729Z,5.97
2019-02-16T00:11:53.041Z,5.89
2019-02-16T00:12:27.938Z,5.99
2019-02-16T00:13:02.294Z,5.99
2019-02-16T00:13:36.685Z,5.93
2019-02-16T00:14:11.050Z,5.90
2019-02-16T00:14:45.536Z,5.99
2019-02-16T00:15:19.876Z,5.97
2019-02-16T00:15:54.239Z,5.90
2019-02-16T00:16:28.830Z,5.93
2019-02-16T00:17:03.171Z,5.94
2019-02-16T00:17:37.510Z,5.87
2019-02-16T00:18:11.844Z,6.00
2019-02-16T00:18:46.252Z,6.00
2019-02-16T00:19:21.262Z,5.93
2019-02-16T00:19:55.615Z,5.88
2019-02-16T00:20:29.964Z,5.88
2019-02-16T00:21:04.527Z,5.91
2019-02-16T00:21:38.872Z,5.84
2019-02-16T00:22:13.518Z,5.84
2019-02-16T00:22:48.068Z,5.92
2019-02-16T00:23:22.703Z,5.87
2019-02-16T00:23:57.444Z,5.83
2019-02-16T00:24:31.772Z,5.83
2019-02-16T00:25:06.242Z,5.79
2019-02-16T00:25:40.574Z,5.70
2019-02-16T00:26:15.526Z,5.70
2019-02-16T00:26:49.947Z,5.61
2019-02-16T00:27:24.268Z,5.61
2019-02-16T00:27:59.533Z,5.64
2019-02-16T00:28:33.924Z,5.64
2019-02-16T00:29:08.581Z,5.64
2019-02-16T00:29:42.956Z,5.58
2019-02-16T00:30:17.566Z,5.54
2019-02-16T00:30:51.945Z,5.69
2019-02-16T00:31:26.292Z,5.64
2019-02-16T00:32:00.927Z,5.60
2019-02-16T00:32:35.455Z,5.62
2019-02-16T00:33:09.782Z,5.62
2019-02-16T00:33:44.197Z,5.61
2019-02-16T00:34:18.552Z,5.61
2019-02-16T00:34:53.194Z,5.58
2019-02-16T00:35:27.768Z,5.53
2019-02-16T00:36:02.101Z,5.53
2019-02-16T00:36:36.527Z,5.58
2019-02-16T00:37:11.110Z,5.61
2019-02-16T00:37:45.481Z,5.61
2019-02-16T00:38:19.921Z,5.56
2019-02-16T00:38:54.412Z,5.51
2019-02-16T00:39:28.712Z,5.51
2019-02-16T00:40:03.110Z,5.50
2019-02-16T00:40:37.446Z,5.53
2019-02-16T00:41:12.056Z,5.53
2019-02-16T00:41:46.666Z,5.52
2019-02-16T00:42:21.003Z,5.53
2019-02-16T00:42:55.334Z,5.53
2019-02-16T00:43:30.142Z,5.53
2019-02-16T00:44:04.756Z,5.46
2019-02-16T00:44:39.363Z,5.38
2019-02-16T00:45:13.772Z,5.38
2019-02-16T00:45:48.139Z,5.38
2019-02-16T00:46:22.757Z,5.32
2019-02-16T00:46:57.118Z,5.32
2019-02-16T00:47:31.697Z,5.32
2019-02-16T00:48:06.356Z,5.30
2019-02-16T00:48:41.055Z,5.30
2019-02-16T00:49:15.489Z,5.29
2019-02-16T00:49:49.869Z,5.29
2019-02-16T00:50:24.217Z,5.30
2019-02-16T00:50:58.833Z,5.30
2019-02-16T00:51:33.459Z,5.24
2019-02-16T00:52:08.213Z,5.23
2019-02-16T00:52:42.824Z,5.24
2019-02-16T00:53:17.442Z,5.23
2019-02-16T00:53:52.096Z,5.19
2019-02-16T00:54:26.497Z,5.19
2019-02-16T00:55:01.124Z,5.16
2019-02-16T00:55:35.439Z,5.16
2019-02-16T00:56:09.800Z,5.07
2019-02-16T00:56:44.138Z,5.18
2019-02-16T00:57:18.516Z,5.18
2019-02-16T00:57:52.903Z,5.14
2019-02-16T00:58:27.224Z,5.09
2019-02-16T00:59:01.593Z,5.11
2019-02-16T00:59:36.499Z,5.11
2019-02-16T01:00:11.426Z,5.08
2019-02-16T01:00:45.762Z,5.08
2019-02-16T01:01:20.113Z,5.07
2019-02-16T01:01:54.742Z,5.09
2019-02-16T01:02:29.311Z,5.07
2019-02-16T01:03:03.640Z,5.07
2019-02-16T01:03:38.045Z,5.06
2019-02-16T01:04:12.665Z,5.01
2019-02-16T01:04:47.317Z,5.00
2019-02-16T01:05:21.945Z,5.02
2019-02-16T01:05:56.847Z,5.09
2019-02-16T01:06:31.167Z,5.01
2019-02-16T01:07:05.489Z,5.01
2019-02-16T01:07:40.075Z,5.01
2019-02-16T01:08:14.757Z,4.97
2019-02-16T01:08:49.186Z,4.97
2019-02-16T01:09:23.702Z,4.90
2019-02-16T01:09:58.057Z,4.94
2019-02-16T01:10:32.666Z,4.90
2019-02-16T01:11:07.083Z,4.88
2019-02-16T01:11:41.425Z,4.88
2019-02-16T01:12:16.090Z,4.87
2019-02-16T01:12:51.015Z,4.86
2019-02-16T01:13:25.392Z,4.86
2019-02-16T01:14:00.298Z,4.92
2019-02-16T01:14:34.950Z,4.88
2019-02-16T01:15:10.121Z,4.83
2019-02-16T01:15:44.519Z,4.80
2019-02-16T01:16:19.213Z,4.85
2019-02-16T01:16:53.681Z,4.85
2019-02-16T01:17:28.021Z,4.78
2019-02-16T01:18:02.619Z,4.73
2019-02-16T01:18:37.025Z,4.73
2019-02-16T01:19:11.902Z,4.75
2019-02-16T01:19:46.238Z,4.70
2019-02-16T01:20:20.905Z,4.65
2019-02-16T01:20:55.232Z,4.63
2019-02-16T01:21:29.692Z,4.62
2019-02-16T01:22:04.040Z,4.58
2019-02-16T01:22:38.380Z,4.46
2019-02-16T01:23:12.744Z,4.48
2019-02-16T01:23:47.127Z,4.48
2019-02-16T01:24:21.746Z,4.48
2019-02-16T01:24:56.087Z,4.46
2019-02-16T01:25:30.433Z,4.46
2019-02-16T01:26:04.795Z,4.43
2019-02-16T01:26:39.129Z,4.40
2019-02-16T01:27:13.491Z,4.55
2019-02-16T01:27:48.071Z,4.52
2019-02-16T01:28:22.455Z,4.46
2019-02-16T01:28:56.842Z,4.43
2019-02-16T01:29:31.673Z,4.42
2019-02-16T01:30:08.282Z,4.41
2019-02-16T01:30:42.878Z,4.37
2019-02-16T01:31:17.483Z,4.35
2019-02-16T01:31:51.929Z,4.41
2019-02-16T01:32:26.514Z,4.37
2019-02-16T01:33:00.868Z,4.35
2019-02-16T01:33:35.205Z,4.31
2019-02-16T01:34:09.867Z,4.31
2019-02-16T01:34:44.260Z,4.37
2019-02-16T01:35:18.895Z,4.41
2019-02-16T01:35:53.356Z,4.40
2019-02-16T01:36:27.960Z,4.35
2019-02-16T01:37:03.473Z,4.33
2019-02-16T01:37:37.854Z,4.32
2019-02-16T01:38:12.505Z,4.32
2019-02-16T01:38:47.038Z,4.33
2019-02-16T01:39:21.553Z,4.33
2019-02-16T01:39:55.899Z,4.33
2019-02-16T01:40:30.541Z,4.32
2019-02-16T01:41:05.165Z,4.36
2019-02-16T01:41:40.242Z,4.33
2019-02-16T01:42:14.864Z,4.29
2019-02-16T01:42:49.569Z,4.27
2019-02-16T01:43:23.909Z,4.23
2019-02-16T01:43:58.297Z,4.19
2019-02-16T01:44:32.656Z,4.19
2019-02-16T01:45:08.345Z,4.19
2019-02-16T01:45:43.235Z,4.19
2019-02-16T01:46:17.923Z,4.22
2019-02-16T01:46:52.545Z,4.18
2019-02-16T01:47:27.415Z,4.18
2019-02-16T01:48:01.999Z,4.19
2019-02-16T01:48:36.656Z,4.23
2019-02-16T01:49:11.297Z,4.35
2019-02-16T01:49:45.637Z,4.28
2019-02-16T01:50:19.987Z,4.25
2019-02-16T01:50:54.318Z,4.21
2019-02-16T01:51:31.953Z,4.21
2019-02-16T01:52:04.921Z,4.15
2019-02-16T01:52:39.276Z,4.15
2019-02-16T01:53:13.907Z,4.11
2019-02-16T01:53:48.553Z,4.11
2019-02-16T01:54:22.937Z,4.10
2019-02-16T01:54:57.291Z,4.10
2019-02-16T01:55:31.906Z,4.13
2019-02-16T01:56:06.512Z,4.15
2019-02-16T01:56:41.179Z,4.12
2019-02-16T01:57:15.552Z,4.10
2019-02-16T01:57:50.169Z,4.10
2019-02-16T01:58:24.537Z,4.10
2019-02-16T01:58:59.276Z,4.05
2019-02-16T01:59:34.155Z,4.09
2019-02-16T02:00:10.697Z,4.08
2019-02-16T02:00:45.079Z,4.13
2019-02-16T02:01:19.477Z,4.15
2019-02-16T02:01:54.154Z,4.13
2019-02-16T02:02:28.746Z,4.12
2019-02-16T02:03:03.078Z,4.09
2019-02-16T02:03:37.427Z,4.14
2019-02-16T02:04:12.046Z,4.14
2019-02-16T02:04:46.780Z,4.10
2019-02-16T02:05:21.488Z,4.15
2019-02-16T02:05:56.180Z,4.13
2019-02-16T02:06:30.668Z,4.13
2019-02-16T02:07:05.454Z,4.13
2019-02-16T02:07:40.178Z,4.14
2019-02-16T02:08:14.933Z,4.12
2019-02-16T02:08:49.278Z,3.87
2019-02-16T02:09:23.909Z,4.04
2019-02-16T02:09:58.265Z,4.08
2019-02-16T02:10:32.904Z,4.02
2019-02-16T02:11:07.766Z,4.02
2019-02-16T02:11:42.118Z,4.09
2019-02-16T02:12:16.517Z,4.10
2019-02-16T02:12:50.910Z,4.10
2019-02-16T02:13:25.274Z,4.08
2019-02-16T02:13:59.629Z,4.16
2019-02-16T02:14:34.274Z,4.18
2019-02-16T02:15:09.135Z,4.20
2019-02-16T02:15:43.508Z,4.19
2019-02-16T02:16:17.889Z,4.23
2019-02-16T02:16:52.667Z,4.19
2019-02-16T02:17:27.299Z,4.21
2019-02-16T02:18:01.948Z,4.20
2019-02-16T02:18:36.275Z,4.20
2019-02-16T02:19:10.661Z,4.15
2019-02-16T02:19:45.143Z,4.13
2019-02-16T02:20:19.523Z,4.10
2019-02-16T02:20:53.951Z,4.12
2019-02-16T02:21:28.287Z,4.11
2019-02-16T02:22:02.675Z,4.07
2019-02-16T02:22:37.553Z,4.08
2019-02-16T02:23:11.898Z,4.06
2019-02-16T02:23:46.586Z,4.03
2019-02-16T02:24:21.244Z,4.01
2019-02-16T02:24:55.685Z,4.00
2019-02-16T02:25:30.565Z,3.95
2019-02-16T02:26:05.179Z,3.94
2019-02-16T02:26:39.788Z,3.97
2019-02-16T02:27:14.167Z,3.94
2019-02-16T02:27:48.529Z,3.93
2019-02-16T02:28:23.384Z,3.91
2019-02-16T02:28:58.063Z,3.85
2019-02-16T02:29:32.702Z,3.92
2019-02-16T02:30:08.081Z,4.03
2019-02-16T02:30:42.412Z,4.04
2019-02-16T02:31:16.831Z,4.02
2019-02-16T02:31:51.261Z,3.94
2019-02-16T02:32:25.983Z,3.96
2019-02-16T02:33:00.403Z,3.98
2019-02-16T02:33:34.729Z,3.94
2019-02-16T02:34:09.326Z,3.90
2019-02-16T02:34:43.989Z,3.90
2019-02-16T02:35:18.351Z,3.90
2019-02-16T02:35:52.709Z,3.92
2019-02-16T02:36:27.066Z,3.93
2019-02-16T02:37:01.649Z,3.92
2019-02-16T02:37:36.354Z,3.88
2019-02-16T02:38:11.278Z,3.88
2019-02-16T02:38:46.278Z,3.86
2019-02-16T02:39:21.255Z,3.88
2019-02-16T02:39:55.613Z,3.91
2019-02-16T02:40:29.949Z,3.93
2019-02-16T02:41:04.267Z,3.90
2019-02-16T02:41:38.890Z,3.86
2019-02-16T02:42:13.848Z,3.91
2019-02-16T02:42:48.195Z,3.92
2019-02-16T02:43:22.945Z,3.86
2019-02-16T02:43:57.538Z,3.87
2019-02-16T02:44:32.228Z,3.88
2019-02-16T02:45:07.736Z,3.90
2019-02-16T02:45:42.105Z,3.93
2019-02-16T02:46:16.527Z,3.92
2019-02-16T02:46:51.147Z,3.91
2019-02-16T02:47:25.496Z,3.91
2019-02-16T02:48:00.092Z,3.99
2019-02-16T02:48:35.072Z,3.99
2019-02-16T02:49:09.714Z,3.98
2019-02-16T02:49:44.425Z,4.00
2019-02-16T02:50:19.462Z,3.99
2019-02-16T02:50:53.864Z,3.99
2019-02-16T02:51:28.157Z,3.98
2019-02-16T02:52:02.820Z,3.95
2019-02-16T02:52:37.752Z,3.92
2019-02-16T02:53:12.377Z,3.95
2019-02-16T02:53:46.719Z,3.97
2019-02-16T02:54:21.125Z,3.95
2019-02-16T02:54:55.521Z,3.90
2019-02-16T02:55:29.874Z,3.85
2019-02-16T02:56:04.224Z,3.83
2019-02-16T02:56:38.833Z,3.79
2019-02-16T02:57:13.199Z,3.79
2019-02-16T02:57:47.602Z,3.81
2019-02-16T02:58:22.281Z,3.80
2019-02-16T02:58:56.630Z,3.78
2019-02-16T02:59:31.233Z,3.76
2019-02-16T03:00:06.423Z,3.79
2019-02-16T03:00:40.768Z,3.81
2019-02-16T03:01:15.176Z,3.78
2019-02-16T03:01:49.541Z,3.76
2019-02-16T03:02:24.166Z,3.76
2019-02-16T03:02:58.493Z,3.78
2019-02-16T03:03:33.071Z,3.79
2019-02-16T03:04:07.390Z,3.79
2019-02-16T03:04:41.757Z,3.73
2019-02-16T03:05:16.139Z,3.73
2019-02-16T03:05:50.522Z,3.74
2019-02-16T03:06:24.963Z,3.71
2019-02-16T03:06:59.852Z,3.68
2019-02-16T03:07:34.184Z,3.66
2019-02-16T03:08:08.767Z,3.65
2019-02-16T03:08:43.118Z,3.60
2019-02-16T03:09:17.576Z,3.57
2019-02-16T03:09:51.981Z,3.64
2019-02-16T03:10:26.320Z,3.63
2019-02-16T03:11:00.982Z,3.66
2019-02-16T03:11:35.565Z,3.61
2019-02-16T03:12:09.899Z,3.64
2019-02-16T03:12:44.552Z,3.66
2019-02-16T03:13:18.935Z,3.68
2019-02-16T03:13:53.856Z,3.68
2019-02-16T03:14:28.423Z,3.67
2019-02-16T03:15:03.188Z,3.69
2019-02-16T03:15:38.068Z,3.66
2019-02-16T03:16:12.398Z,3.62
2019-02-16T03:16:47.268Z,3.64
2019-02-16T03:17:21.689Z,3.53
2019-02-16T03:17:56.126Z,3.53
2019-02-16T03:18:30.745Z,3.49
2019-02-16T03:19:05.084Z,3.52
2019-02-16T03:19:39.437Z,3.49
2019-02-16T03:20:14.527Z,3.49
2019-02-16T03:20:48.977Z,3.47
2019-02-16T03:21:23.327Z,3.45
2019-02-16T03:22:02.836Z,3.41
2019-02-16T03:23:14.595Z,3.41
2019-02-16T03:23:49.026Z,3.41
2019-02-16T03:24:23.470Z,3.43
2019-02-16T03:24:58.393Z,3.47
2019-02-16T03:25:32.714Z,3.50
2019-02-16T03:26:32.314Z,3.47
2019-02-16T03:27:15.296Z,3.41
2019-02-16T03:28:26.643Z,3.48
2019-02-16T03:29:22.629Z,3.46
2019-02-16T03:30:12.706Z,3.41
2019-02-16T03:31:28.711Z,3.40
2019-02-16T03:32:53.388Z,3.45
2019-02-16T03:33:50.000Z,3.45
2019-02-16T03:34:28.793Z,3.34
2019-02-16T03:35:16.488Z,3.26
2019-02-16T03:36:14.488Z,3.28
2019-02-16T03:37:53.672Z,3.27
2019-02-16T03:39:21.154Z,3.24
2019-02-16T03:39:55.762Z,3.15
2019-02-16T03:40:30.438Z,3.19
2019-02-16T03:41:04.798Z,3.17
2019-02-16T03:41:39.105Z,3.19
2019-02-16T03:42:13.811Z,3.23
2019-02-16T03:42:48.532Z,3.21
2019-02-16T03:43:22.926Z,3.21
2019-02-16T03:43:57.261Z,3.21
2019-02-16T03:44:31.920Z,3.21
2019-02-16T03:45:06.716Z,3.21
2019-02-16T03:45:41.094Z,3.20
2019-02-16T03:46:15.775Z,3.19
2019-02-16T03:46:50.365Z,3.21
2019-02-16T03:47:24.769Z,3.19
2019-02-16T03:47:59.412Z,3.17
2019-02-16T03:48:33.738Z,3.15
2019-02-16T03:49:08.175Z,3.20
2019-02-16T03:49:42.778Z,3.18
2019-02-16T03:50:17.475Z,3.15
2019-02-16T03:50:51.856Z,3.15
2019-02-16T03:51:26.207Z,3.15
2019-02-16T03:52:00.544Z,3.14
2019-02-16T03:52:34.923Z,3.15
2019-02-16T03:53:09.246Z,3.23
2019-02-16T03:53:43.938Z,3.31
2019-02-16T03:54:18.287Z,3.26
2019-02-16T03:54:52.682Z,3.20
2019-02-16T03:55:27.668Z,3.18
2019-02-16T03:56:02.002Z,3.13
2019-02-16T03:56:36.625Z,3.12
2019-02-16T03:57:11.016Z,3.09
2019-02-16T03:57:45.928Z,3.10
2019-02-16T03:58:20.568Z,3.09
2019-02-16T03:58:54.915Z,3.08
2019-02-16T03:59:29.261Z,3.07
2019-02-16T04:00:03.992Z,3.06
2019-02-16T04:01:11.446Z,3.13
2019-02-16T04:01:45.908Z,3.12
2019-02-16T04:02:20.628Z,3.13
2019-02-16T04:02:55.229Z,3.09
2019-02-16T04:03:29.862Z,3.06
2019-02-16T04:04:04.200Z,3.06
2019-02-16T04:04:38.856Z,3.09
2019-02-16T04:05:13.219Z,3.07
2019-02-16T04:05:47.920Z,3.07
2019-02-16T04:06:22.293Z,3.04
2019-02-16T04:06:56.642Z,3.03
2019-02-16T04:07:31.360Z,3.15
2019-02-16T04:08:05.984Z,3.17
2019-02-16T04:08:40.317Z,3.13
2019-02-16T04:09:14.687Z,3.17
2019-02-16T04:09:49.086Z,3.18
2019-02-16T04:10:26.508Z,3.14
2019-02-16T04:11:01.120Z,3.11
2019-02-16T04:11:35.630Z,3.08
2019-02-16T04:12:10.221Z,3.07
2019-02-16T04:12:45.253Z,3.09
2019-02-16T04:13:19.900Z,3.08
2019-02-16T04:13:54.274Z,3.15
2019-02-16T04:14:28.888Z,3.12
2019-02-16T04:15:03.495Z,3.15
2019-02-16T04:15:38.730Z,3.14
2019-02-16T04:16:13.669Z,3.13
2019-02-16T04:16:48.295Z,3.22
2019-02-16T04:17:22.667Z,3.18
2019-02-16T04:17:57.302Z,3.16
2019-02-16T04:18:31.926Z,3.12
2019-02-16T04:19:06.352Z,3.10
2019-02-16T04:19:41.253Z,3.15
2019-02-16T04:20:15.638Z,3.17
2019-02-16T04:20:50.265Z,3.09
2019-02-16T04:21:24.760Z,3.13
2019-02-16T04:21:59.092Z,3.10
2019-02-16T04:22:33.418Z,3.09
2019-02-16T04:23:07.742Z,3.11
2019-02-16T04:23:42.080Z,3.09
2019-02-16T04:24:16.828Z,3.09
2019-02-16T04:24:51.462Z,3.04
2019-02-16T04:25:25.800Z,3.02
2019-02-16T04:26:00.166Z,3.02
2019-02-16T04:26:34.491Z,3.02
2019-02-16T04:27:09.354Z,3.00
2019-02-16T04:27:44.342Z,3.06
2019-02-16T04:28:18.739Z,3.09
2019-02-16T04:28:53.434Z,3.04
2019-02-16T04:29:28.273Z,3.08
2019-02-16T04:30:03.155Z,3.09
2019-02-16T04:30:37.489Z,3.11
2019-02-16T04:31:12.178Z,3.13
2019-02-16T04:31:46.535Z,3.19
2019-02-16T04:32:20.910Z,3.15
2019-02-16T04:32:55.251Z,3.09
2019-02-16T04:33:29.890Z,3.05
2019-02-16T04:34:04.476Z,3.01
2019-02-16T04:34:39.084Z,2.96
2019-02-16T04:35:13.810Z,2.93
2019-02-16T04:35:48.512Z,2.97
2019-02-16T04:36:22.925Z,3.01
2019-02-16T04:36:57.518Z,3.04
2019-02-16T04:37:32.432Z,3.04
2019-02-16T04:38:06.859Z,3.08
2019-02-16T04:38:41.449Z,3.04
2019-02-16T04:39:15.903Z,3.06
2019-02-16T04:39:50.275Z,3.02
2019-02-16T04:40:24.972Z,3.03
2019-02-16T04:40:59.854Z,3.10
2019-02-16T04:41:34.255Z,3.10
2019-02-16T04:42:08.873Z,3.07
2019-02-16T04:42:43.511Z,3.01
2019-02-16T04:43:17.867Z,3.09
2019-02-16T04:43:52.242Z,3.09
2019-02-16T04:44:27.068Z,3.11
2019-02-16T04:45:01.752Z,3.10
2019-02-16T04:45:36.110Z,3.06
2019-02-16T04:46:10.500Z,3.08
2019-02-16T04:46:45.168Z,3.09
2019-02-16T04:47:19.962Z,3.21
2019-02-16T04:47:54.578Z,3.19
2019-02-16T04:48:28.925Z,3.15
2019-02-16T04:49:03.280Z,3.17
2019-02-16T04:49:37.639Z,3.22
2019-02-16T04:50:12.227Z,3.19
2019-02-16T04:50:46.609Z,3.20
2019-02-16T04:51:21.072Z,3.17
2019-02-16T04:51:55.465Z,3.11
2019-02-16T04:52:34.680Z,3.06
2019-02-16T04:53:06.118Z,3.00
2019-02-16T04:53:40.480Z,2.99
2019-02-16T04:54:14.890Z,3.01
2019-02-16T04:54:49.394Z,3.01
2019-02-16T04:55:23.780Z,3.06
2019-02-16T04:55:58.396Z,3.09
2019-02-16T04:56:32.862Z,3.05
2019-02-16T04:57:07.483Z,3.02
2019-02-16T04:57:41.830Z,3.03
2019-02-16T04:58:16.227Z,3.04
2019-02-16T04:58:50.627Z,3.00
2019-02-16T04:59:25.286Z,2.96
2019-02-16T04:59:59.610Z,2.95
2019-02-16T05:00:34.218Z,2.92
2019-02-16T05:01:08.556Z,2.90
2019-02-16T05:01:43.232Z,2.90
2019-02-16T05:02:18.233Z,2.89
2019-02-16T05:02:52.618Z,2.87
2019-02-16T05:03:27.230Z,2.92
2019-02-16T05:04:01.837Z,2.90
2019-02-16T05:04:36.406Z,2.94
2019-02-16T05:05:10.999Z,2.98
2019-02-16T05:05:45.401Z,2.96
2019-02-16T05:06:20.074Z,2.95
2019-02-16T05:06:54.458Z,2.96
2019-02-16T05:07:29.079Z,2.95
2019-02-16T05:08:03.417Z,2.97
2019-02-16T05:08:37.767Z,2.96
2019-02-16T05:09:12.123Z,2.92
2019-02-16T05:09:46.500Z,2.92
2019-02-16T05:10:21.236Z,2.92
2019-02-16T05:10:55.851Z,2.96
2019-02-16T05:11:30.512Z,2.91
2019-02-16T05:12:05.110Z,2.93
2019-02-16T05:12:40.005Z,3.10
2019-02-16T05:13:14.642Z,3.06
2019-02-16T05:13:49.278Z,3.05
2019-02-16T05:14:23.644Z,3.05
2019-02-16T05:14:58.278Z,3.01
2019-02-16T05:15:32.634Z,3.00
2019-02-16T05:16:06.976Z,3.00
2019-02-16T05:16:41.631Z,3.00
2019-02-16T05:17:16.003Z,2.98
2019-02-16T05:17:50.384Z,3.01
2019-02-16T05:18:24.968Z,3.01
2019-02-16T05:18:59.324Z,3.02
2019-02-16T05:19:34.262Z,3.00
2019-02-16T05:20:08.602Z,2.98
2019-02-16T05:20:43.168Z,3.00
2019-02-16T05:21:17.538Z,3.02
2019-02-16T05:21:51.986Z,2.99
2019-02-16T05:22:26.927Z,2.94
2019-02-16T05:23:01.979Z,2.94
2019-02-16T05:23:36.560Z,2.96
2019-02-16T05:24:11.261Z,2.97
2019-02-16T05:24:45.698Z,2.99
2019-02-16T05:25:20.119Z,2.96
2019-02-16T05:25:54.469Z,2.95
2019-02-16T05:26:28.797Z,2.97
2019-02-16T05:27:03.191Z,2.92
2019-02-16T05:27:37.840Z,2.95
2019-02-16T05:28:12.448Z,2.94
2019-02-16T05:28:47.174Z,2.92
2019-02-16T05:29:21.765Z,2.88
2019-02-16T05:29:56.402Z,2.88
2019-02-16T05:30:31.010Z,2.94
2019-02-16T05:31:05.654Z,2.92
2019-02-16T05:31:40.261Z,2.91
2019-02-16T05:32:15.301Z,2.93
2019-02-16T05:32:49.692Z,2.92
2019-02-16T05:33:24.048Z,2.90
2019-02-16T05:33:58.976Z,2.85
2019-02-16T05:34:33.509Z,2.86
2019-02-16T05:35:08.128Z,2.87
2019-02-16T05:35:42.962Z,2.88
2019-02-16T05:36:17.347Z,2.89
2019-02-16T05:36:52.043Z,2.87
2019-02-16T05:37:26.674Z,2.87
2019-02-16T05:38:01.026Z,2.85
2019-02-16T05:38:35.651Z,2.88
2019-02-16T05:39:09.975Z,2.87
2019-02-16T05:39:44.330Z,2.88
2019-02-16T05:40:18.770Z,2.83
2019-02-16T05:40:53.403Z,2.86
2019-02-16T05:41:27.743Z,2.90
2019-02-16T05:42:02.148Z,2.93
2019-02-16T05:42:36.477Z,2.89
2019-02-16T05:43:11.038Z,2.88
2019-02-16T05:43:45.406Z,2.88
2019-02-16T05:44:19.853Z,2.83
2019-02-16T05:44:54.487Z,2.79
2019-02-16T05:45:29.071Z,2.81
2019-02-16T05:46:03.655Z,2.75
2019-02-16T05:46:38.007Z,2.76
2019-02-16T05:47:12.751Z,2.71
2019-02-16T05:47:47.162Z,2.74
2019-02-16T05:48:21.758Z,2.69
2019-02-16T05:48:56.394Z,2.74
2019-02-16T05:49:30.730Z,2.73
2019-02-16T05:50:05.173Z,2.70
2019-02-16T05:50:39.509Z,2.67
2019-02-16T05:51:13.884Z,2.65
2019-02-16T05:51:48.326Z,2.62
2019-02-16T05:52:22.685Z,2.62
2019-02-16T05:52:57.311Z,2.58
2019-02-16T05:53:31.667Z,2.64
2019-02-16T05:54:06.525Z,2.64
2019-02-16T05:54:40.868Z,2.63
2019-02-16T05:55:15.260Z,2.68
2019-02-16T05:55:49.658Z,2.67
2019-02-16T05:56:24.019Z,2.68
2019-02-16T05:56:58.391Z,2.68
2019-02-16T05:57:32.805Z,2.67
2019-02-16T05:58:07.719Z,2.64
2019-02-16T05:58:42.499Z,2.65
2019-02-16T05:59:16.864Z,2.63
2019-02-16T05:59:53.970Z,2.68
2019-02-16T06:00:30.008Z,2.69
2019-02-16T06:01:04.451Z,2.61
2019-02-16T06:01:38.796Z,2.59
2019-02-16T06:02:13.209Z,2.57
2019-02-16T06:02:47.592Z,2.49
2019-02-16T06:03:21.968Z,2.46
2019-02-16T06:03:56.604Z,2.51
2019-02-16T06:04:30.936Z,2.48
2019-02-16T06:05:05.705Z,2.41
2019-02-16T06:05:40.921Z,2.47
2019-02-16T06:06:15.472Z,2.43
2019-02-16T06:06:50.190Z,2.41
2019-02-16T06:07:25.190Z,2.38
2019-02-16T06:07:59.577Z,2.37
2019-02-16T06:08:33.890Z,2.36
2019-02-16T06:09:08.232Z,2.35
2019-02-16T06:09:42.577Z,2.39
2019-02-16T06:10:16.989Z,2.33
2019-02-16T06:10:51.636Z,2.31
2019-02-16T06:11:26.247Z,2.31
2019-02-16T06:12:00.616Z,2.26
2019-02-16T06:12:35.758Z,2.27
2019-02-16T06:13:10.336Z,2.23
2019-02-16T06:13:44.727Z,2.23
2019-02-16T06:14:19.136Z,2.22
2019-02-16T06:14:53.525Z,2.19
2019-02-16T06:15:27.854Z,2.17
2019-02-16T06:16:02.465Z,2.16
2019-02-16T06:16:36.830Z,2.16
2019-02-16T06:17:11.335Z,2.17
2019-02-16T06:17:45.729Z,2.16
2019-02-16T06:18:20.741Z,2.16
2019-02-16T06:18:55.373Z,2.16
2019-02-16T06:19:29.741Z,2.20
2019-02-16T06:20:04.129Z,2.17
2019-02-16T06:20:38.471Z,2.15
2019-02-16T06:21:13.364Z,2.17
2019-02-16T06:21:47.761Z,2.13
2019-02-16T06:22:22.188Z,2.14
2019-02-16T06:23:03.694Z,2.13
2019-02-16T06:23:32.577Z,2.10
2019-02-16T06:24:07.161Z,2.14
2019-02-16T06:24:41.493Z,2.19
2019-02-16T06:25:15.890Z,2.16
2019-02-16T06:25:50.283Z,2.13
2019-02-16T06:26:24.685Z,2.11
2019-02-16T06:26:59.014Z,2.07
2019-02-16T06:27:33.659Z,2.11
2019-02-16T06:28:08.296Z,2.11
2019-02-16T06:28:42.681Z,2.17
2019-02-16T06:29:17.099Z,2.14
2019-02-16T06:29:51.795Z,2.12
2019-02-16T06:30:26.235Z,2.14
2019-02-16T06:31:00.835Z,2.16
2019-02-16T06:31:35.180Z,2.21
2019-02-16T06:32:09.517Z,2.21
2019-02-16T06:32:44.226Z,2.21
2019-02-16T06:33:18.860Z,2.21
2019-02-16T06:33:53.534Z,2.21
2019-02-16T06:34:28.117Z,2.25
2019-02-16T06:35:30.356Z,2.25
2019-02-16T06:36:11.302Z,2.31
2019-02-16T06:36:45.776Z,2.27
2019-02-16T06:37:24.476Z,2.26
2019-02-16T06:37:59.059Z,2.25
2019-02-16T06:38:33.436Z,2.24
2019-02-16T06:39:08.034Z,2.22
2019-02-16T06:39:42.613Z,2.27
2019-02-16T06:40:16.975Z,2.25
2019-02-16T06:40:51.322Z,2.25
2019-02-16T06:41:25.672Z,2.21
2019-02-16T06:42:00.613Z,2.23
2019-02-16T06:42:35.550Z,2.27
2019-02-16T06:43:09.975Z,2.35
2019-02-16T06:43:44.351Z,2.37
2019-02-16T06:44:18.868Z,2.40
2019-02-16T06:44:53.219Z,2.36
2019-02-16T06:45:27.801Z,2.41
2019-02-16T06:46:02.138Z,2.51
2019-02-16T06:46:36.486Z,2.55
2019-02-16T06:47:10.808Z,2.54
2019-02-16T06:47:45.490Z,2.54
2019-02-16T06:48:20.129Z,2.50
2019-02-16T06:48:54.477Z,2.48
2019-02-16T06:49:29.103Z,2.48
2019-02-16T06:50:03.703Z,2.49
2019-02-16T06:50:38.040Z,2.50
2019-02-16T06:51:12.687Z,2.48
2019-02-16T06:51:47.390Z,2.53
2019-02-16T06:52:22.112Z,2.53
2019-02-16T06:52:56.480Z,2.52
2019-02-16T06:53:31.154Z,2.53
2019-02-16T06:54:05.581Z,2.54
2019-02-16T06:54:40.179Z,2.59
2019-02-16T06:55:14.534Z,2.56
2019-02-16T06:56:02.296Z,2.56
2019-02-16T06:56:44.750Z,2.57
2019-02-16T06:57:22.963Z,2.64
2019-02-16T06:57:57.350Z,2.65
2019-02-16T06:58:32.368Z,2.65
2019-02-16T06:59:06.986Z,2.66
2019-02-16T06:59:41.563Z,2.68
2019-02-16T07:00:17.674Z,2.73
2019-02-16T07:00:52.041Z,2.69
2019-02-16T07:01:26.382Z,2.69
2019-02-16T07:02:00.708Z,2.70
2019-02-16T07:02:35.360Z,2.67
2019-02-16T07:03:09.728Z,2.68
2019-02-16T07:03:44.805Z,2.67
2019-02-16T07:04:19.583Z,2.66
2019-02-16T07:04:53.907Z,2.71
2019-02-16T07:05:28.288Z,2.68
2019-02-16T07:06:02.926Z,2.69
2019-02-16T07:06:37.320Z,2.67
2019-02-16T07:07:11.662Z,2.77
2019-02-16T07:07:46.101Z,2.81
2019-02-16T07:08:20.784Z,2.78
2019-02-16T07:08:55.145Z,2.75
2019-02-16T07:09:29.481Z,2.74
2019-02-16T07:10:04.129Z,2.81
2019-02-16T07:10:38.466Z,2.74
2019-02-16T07:11:12.803Z,2.75
2019-02-16T07:11:47.147Z,2.76
2019-02-16T07:12:21.669Z,2.74
2019-02-16T07:12:56.018Z,2.75
2019-02-16T07:13:30.619Z,2.76
2019-02-16T07:14:05.270Z,2.80
2019-02-16T07:14:39.619Z,2.89
2019-02-16T07:15:14.358Z,2.82
2019-02-16T07:16:07.701Z,2.82
2019-02-16T07:17:10.233Z,2.81
2019-02-16T07:17:51.847Z,2.85
2019-02-16T07:18:32.105Z,2.90
2019-02-16T07:19:34.768Z,2.84
2019-02-16T07:20:09.487Z,2.82
2019-02-16T07:20:44.103Z,2.82
2019-02-16T07:21:18.540Z,2.80
2019-02-16T07:21:53.201Z,2.80
2019-02-16T07:22:27.895Z,2.77
2019-02-16T07:23:02.279Z,2.84
2019-02-16T07:23:36.619Z,2.91
2019-02-16T07:24:11.224Z,2.89
2019-02-16T07:24:45.595Z,2.90
2019-02-16T07:25:19.982Z,2.93
2019-02-16T07:25:54.882Z,2.88
2019-02-16T07:26:29.220Z,2.94
2019-02-16T07:27:03.933Z,2.93
2019-02-16T07:27:38.519Z,2.94
2019-02-16T07:28:13.072Z,2.98
2019-02-16T07:28:47.377Z,3.00
2019-02-16T07:29:22.311Z,3.02
2019-02-16T07:29:56.943Z,3.03
2019-02-16T07:30:31.317Z,3.08
2019-02-16T07:31:05.904Z,3.08
2019-02-16T07:31:40.483Z,3.08
2019-02-16T07:32:14.830Z,3.15
2019-02-16T07:32:49.195Z,3.16
2019-02-16T07:33:23.817Z,3.17
2019-02-16T07:33:58.466Z,3.20
2019-02-16T07:34:33.062Z,3.21
2019-02-16T07:35:08.018Z,3.34
2019-02-16T07:35:43.219Z,3.38
2019-02-16T07:36:18.020Z,3.47
2019-02-16T07:36:52.673Z,3.55
2019-02-16T07:37:27.119Z,3.57
2019-02-16T07:38:01.440Z,3.60
2019-02-16T07:38:36.083Z,3.63
2019-02-16T07:39:10.695Z,3.64
2019-02-16T07:39:45.224Z,3.65
2019-02-16T07:40:19.662Z,3.72
2019-02-16T07:40:54.266Z,3.77
2019-02-16T07:41:28.856Z,3.76
2019-02-16T07:42:03.217Z,3.72
2019-02-16T07:42:53.845Z,3.69
2019-02-16T07:43:59.344Z,3.68
2019-02-16T07:45:04.604Z,3.77
2019-02-16T07:45:57.909Z,3.72
2019-02-16T07:47:03.419Z,3.77
2019-02-16T07:47:55.886Z,3.73
2019-02-16T07:48:54.567Z,3.70
2019-02-16T07:49:57.252Z,3.77
2019-02-16T07:50:50.856Z,3.70
2019-02-16T07:51:40.079Z,3.67
2019-02-16T07:52:32.184Z,3.68
2019-02-16T07:53:31.107Z,3.79
2019-02-16T07:54:11.801Z,3.77
2019-02-16T07:54:59.196Z,3.84